Time;durP1;ratioP1;P1;durP2;ratioP2;P2;SDS_P1;SDS_P2;PMS_P1;PMS_P2;Temp;Humidity;BMP_temperature;BMP_pressure;BME280_temperature;BME280_humidity;BME280_pressure;Samples;Min_cycle;Max_cycle;Signal;HPM_P1;HPM_P2
2022/10/14 00:01:25;;;;;;;47.20;31.47;;;;;;;;;;5073702;28;20790;-68
2022/10/14 00:03:54;;;;;;;39.10;31.43;;;;;;;;;;5073554;28;20496;-68
2022/10/14 00:06:22;;;;;;;47.27;31.87;;;;;;;;;;5073616;28;20543;-68
2022/10/14 00:08:50;;;;;;;39.93;30.53;;;;;;;;;;5074137;28;20442;-68
2022/10/14 00:11:18;;;;;;;43.93;29.17;;;;;;;;;;5073336;28;20805;-68
2022/10/14 00:13:45;;;;;;;51.50;31.83;;;;;;;;;;5073033;28;20456;-67
2022/10/14 00:16:17;;;;;;;43.87;31.10;;;;;;;;;;5073221;28;20452;-67
2022/10/14 00:18:44;;;;;;;41.23;29.50;;;;;;;;;;5073275;28;20440;-68
2022/10/14 00:21:13;;;;;;;47.23;31.23;;;;;;;;;;5073090;28;20447;-68
2022/10/14 00:23:40;;;;;;;46.30;32.10;;;;;;;;;;5073038;28;20471;-68
2022/10/14 00:26:07;;;;;;;47.67;32.73;;;;;;;;;;5073290;28;20476;-68
2022/10/14 00:28:34;;;;;;;46.43;31.30;;;;;;;;;;5074271;28;20761;-68
2022/10/14 00:31:02;;;;;;;49.30;31.90;;;;;;;;;;5074916;28;20447;-68
2022/10/14 00:33:29;;;;;;;47.33;31.80;;;;;;;;;;5077014;28;20447;-67
2022/10/14 00:35:57;;;;;;;48.23;31.57;;;;;;;;;;5077098;28;20449;-67
2022/10/14 00:38:27;;;;;;;46.17;32.50;;;;;;;;;;5077287;28;20433;-68
2022/10/14 00:40:54;;;;;;;45.33;32.83;;;;;;;;;;5077340;28;20455;-68
2022/10/14 00:43:22;;;;;;;43.87;30.70;;;;;;;;;;5076848;28;20442;-67
2022/10/14 00:45:49;;;;;;;43.40;30.50;;;;;;;;;;5076992;28;20830;-68
2022/10/14 00:48:17;;;;;;;48.40;32.63;;;;;;;;;;5077830;28;20781;-67
2022/10/14 00:50:46;;;;;;;42.33;32.80;;;;;;;;;;5076862;28;20437;-68
2022/10/14 00:53:14;;;;;;;49.30;33.50;;;;;;;;;;5076952;28;20447;-68
2022/10/14 00:55:43;;;;;;;46.33;32.30;;;;;;;;;;5076504;28;20445;-68
2022/10/14 00:58:11;;;;;;;49.60;34.30;;;;;;;;;;5077007;28;20537;-68
2022/10/14 01:00:38;;;;;;;45.80;33.90;;;;;;;;;;5076667;28;20451;-68
2022/10/14 01:03:08;;;;;;;41.97;30.97;;;;;;;;;;5076729;28;20464;-68
2022/10/14 01:05:40;;;;;;;46.23;32.33;;;;;;;;;;5076194;28;20810;-68
2022/10/14 01:08:10;;;;;;;46.67;32.60;;;;;;;;;;5076382;28;20431;-68
2022/10/14 01:10:42;;;;;;;44.10;33.97;;;;;;;;;;5076944;28;20436;-68
2022/10/14 01:13:15;;;;;;;52.80;34.33;;;;;;;;;;5076682;28;20448;-68
2022/10/14 01:15:47;;;;;;;46.03;32.73;;;;;;;;;;5076866;28;20466;-68
2022/10/14 01:18:27;;;;;;;49.07;34.13;;;;;;;;;;5077028;28;20508;-67
2022/10/14 01:21:08;;;;;;;49.40;32.30;;;;;;;;;;5076124;28;20473;-68
2022/10/14 01:23:41;;;;;;;46.47;31.97;;;;;;;;;;5076720;28;20429;-68
2022/10/14 01:26:16;;;;;;;45.37;30.20;;;;;;;;;;5075332;28;20831;-68
2022/10/14 01:28:47;;;;;;;45.57;31.50;;;;;;;;;;5075116;28;20447;-68
2022/10/14 01:31:18;;;;;;;47.23;29.33;;;;;;;;;;5074730;28;20519;-68
2022/10/14 01:33:46;;;;;;;45.10;30.67;;;;;;;;;;5074784;28;20426;-68
2022/10/14 01:36:17;;;;;;;41.83;29.40;;;;;;;;;;5074836;28;20468;-68
2022/10/14 01:38:47;;;;;;;40.47;28.43;;;;;;;;;;5074758;28;20431;-67
2022/10/14 01:41:17;;;;;;;39.73;27.20;;;;;;;;;;5074194;28;20460;-68
2022/10/14 01:43:46;;;;;;;40.70;26.83;;;;;;;;;;5074650;28;20441;-67
2022/10/14 01:46:13;;;;;;;33.83;23.80;;;;;;;;;;5074996;28;20479;-68
2022/10/14 01:48:45;;;;;;;35.17;23.73;;;;;;;;;;5075555;28;20767;-68
2022/10/14 01:51:15;;;;;;;34.60;24.53;;;;;;;;;;5074713;28;20430;-68
2022/10/14 01:53:43;;;;;;;31.00;23.17;;;;;;;;;;5074458;28;20482;-68
2022/10/14 01:56:12;;;;;;;37.73;25.90;;;;;;;;;;5074331;28;20446;-68
2022/10/14 01:58:40;;;;;;;35.80;23.90;;;;;;;;;;5074688;28;20448;-68
2022/10/14 02:01:09;;;;;;;33.03;24.77;;;;;;;;;;5074486;28;20449;-68
2022/10/14 02:03:41;;;;;;;35.43;23.83;;;;;;;;;;5074740;28;20437;-69
2022/10/14 02:06:12;;;;;;;33.33;24.17;;;;;;;;;;5074224;28;20482;-68
2022/10/14 02:08:44;;;;;;;31.80;23.37;;;;;;;;;;5074723;28;20440;-68
2022/10/14 02:11:13;;;;;;;39.10;23.53;;;;;;;;;;5074434;28;20425;-68
2022/10/14 02:13:50;;;;;;;38.10;25.30;;;;;;;;;;5074749;28;20447;-68
2022/10/14 02:16:23;;;;;;;38.77;24.23;;;;;;;;;;5074572;28;20436;-68
2022/10/14 02:18:52;;;;;;;30.87;23.10;;;;;;;;;;5074131;28;20441;-68
2022/10/14 02:21:23;;;;;;;36.90;24.53;;;;;;;;;;5074217;28;20437;-68
2022/10/14 02:23:53;;;;;;;42.83;23.97;;;;;;;;;;5036250;28;1094140;-68
2022/10/14 02:26:21;;;;;;;39.53;27.30;;;;;;;;;;5074772;28;20210;-68
2022/10/14 02:28:49;;;;;;;39.67;28.80;;;;;;;;;;5075204;28;20801;-68
2022/10/14 02:31:18;;;;;;;44.13;27.90;;;;;;;;;;5074711;28;20445;-68
2022/10/14 02:33:49;;;;;;;37.60;26.23;;;;;;;;;;5075129;28;20450;-68
2022/10/14 02:36:18;;;;;;;44.93;28.40;;;;;;;;;;5074710;28;20545;-68
2022/10/14 02:38:47;;;;;;;42.50;26.53;;;;;;;;;;5074583;28;20448;-68
2022/10/14 02:41:16;;;;;;;42.07;28.17;;;;;;;;;;5074496;28;20458;-69
2022/10/14 02:43:44;;;;;;;46.23;26.70;;;;;;;;;;5074812;28;20450;-67
2022/10/14 02:46:12;;;;;;;42.80;27.60;;;;;;;;;;5074689;28;20483;-68
2022/10/14 02:48:39;;;;;;;49.73;30.70;;;;;;;;;;5074441;28;20446;-67
2022/10/14 02:51:06;;;;;;;47.77;31.67;;;;;;;;;;5074695;28;20775;-68
2022/10/14 02:53:33;;;;;;;46.50;32.50;;;;;;;;;;5073935;28;20812;-68
2022/10/14 02:56:02;;;;;;;49.23;29.77;;;;;;;;;;5074991;28;20450;-67
2022/10/14 02:58:29;;;;;;;47.50;29.90;;;;;;;;;;5074438;28;20481;-68
2022/10/14 03:00:57;;;;;;;50.20;32.03;;;;;;;;;;5074749;28;20442;-67
2022/10/14 03:03:24;;;;;;;50.17;32.63;;;;;;;;;;5074575;28;20452;-68
2022/10/14 03:05:51;;;;;;;51.50;32.23;;;;;;;;;;5074513;28;20445;-68
2022/10/14 03:08:18;;;;;;;56.23;32.70;;;;;;;;;;5074337;28;20478;-68
2022/10/14 03:10:47;;;;;;;52.43;31.03;;;;;;;;;;5074316;28;20446;-67
2022/10/14 03:13:15;;;;;;;50.00;31.57;;;;;;;;;;5073907;28;20970;-68
2022/10/14 03:15:43;;;;;;;49.37;30.57;;;;;;;;;;5073914;28;20440;-68
2022/10/14 03:18:10;;;;;;;46.43;29.63;;;;;;;;;;5073681;28;20450;-68
2022/10/14 03:20:37;;;;;;;47.07;29.30;;;;;;;;;;5074171;28;20944;-68
2022/10/14 03:23:04;;;;;;;50.73;30.10;;;;;;;;;;5074359;28;20544;-68
2022/10/14 03:25:31;;;;;;;47.30;28.70;;;;;;;;;;5074287;28;20469;-68
2022/10/14 03:27:58;;;;;;;48.90;30.47;;;;;;;;;;5073786;28;20486;-68
2022/10/14 03:30:27;;;;;;;58.93;30.57;;;;;;;;;;5074212;28;20445;-68
2022/10/14 03:32:54;;;;;;;51.30;32.13;;;;;;;;;;5073487;28;20949;-67
2022/10/14 03:35:22;;;;;;;53.00;31.43;;;;;;;;;;5073844;28;20440;-68
2022/10/14 03:37:51;;;;;;;54.20;32.70;;;;;;;;;;5074080;28;20450;-67
2022/10/14 03:40:19;;;;;;;49.03;30.60;;;;;;;;;;5073515;28;20455;-68
2022/10/14 03:42:46;;;;;;;56.70;29.03;;;;;;;;;;5073638;28;20799;-69
2022/10/14 03:45:13;;;;;;;66.83;34.83;;;;;;;;;;5073734;28;20445;-67
2022/10/14 03:47:42;;;;;;;63.60;34.80;;;;;;;;;;5074090;28;20485;-68
2022/10/14 03:50:09;;;;;;;61.10;33.87;;;;;;;;;;5073335;28;20446;-67
2022/10/14 03:52:39;;;;;;;75.03;38.33;;;;;;;;;;5072267;28;20825;-68
2022/10/14 03:55:06;;;;;;;64.60;34.00;;;;;;;;;;5072672;28;21004;-68
2022/10/14 03:57:33;;;;;;;74.00;34.40;;;;;;;;;;5072411;28;20458;-68
2022/10/14 04:00:01;;;;;;;70.17;37.30;;;;;;;;;;5072918;28;20441;-68
2022/10/14 04:02:28;;;;;;;63.93;33.97;;;;;;;;;;5072939;28;20965;-68
2022/10/14 04:04:56;;;;;;;60.70;35.33;;;;;;;;;;5072805;28;20442;-68
2022/10/14 04:07:23;;;;;;;64.13;36.07;;;;;;;;;;5073288;28;21295;-68
2022/10/14 04:09:51;;;;;;;70.30;36.60;;;;;;;;;;5073302;28;20468;-68
2022/10/14 04:12:18;;;;;;;66.83;36.60;;;;;;;;;;5073275;28;20450;-69
2022/10/14 04:14:45;;;;;;;69.63;37.20;;;;;;;;;;5073287;28;20444;-67
2022/10/14 04:17:13;;;;;;;76.20;37.90;;;;;;;;;;5073317;28;20453;-68
2022/10/14 04:19:40;;;;;;;65.00;37.30;;;;;;;;;;5073302;28;20455;-68
2022/10/14 04:22:09;;;;;;;72.20;37.10;;;;;;;;;;5073174;28;20442;-67
2022/10/14 04:24:36;;;;;;;74.60;40.77;;;;;;;;;;5072789;28;20473;-68
2022/10/14 04:27:04;;;;;;;73.80;39.63;;;;;;;;;;5073170;28;20480;-67
2022/10/14 04:29:31;;;;;;;77.20;39.57;;;;;;;;;;5073157;28;20534;-68
2022/10/14 04:31:58;;;;;;;74.90;39.90;;;;;;;;;;5073121;28;20452;-67
2022/10/14 04:34:25;;;;;;;87.60;41.70;;;;;;;;;;5072529;28;20537;-69
2022/10/14 04:36:53;;;;;;;64.60;36.93;;;;;;;;;;5073102;28;20450;-67
2022/10/14 04:39:21;;;;;;;80.57;38.70;;;;;;;;;;5072422;28;20965;-68
2022/10/14 04:41:49;;;;;;;83.17;39.40;;;;;;;;;;5072626;28;20932;-68
2022/10/14 04:44:16;;;;;;;83.37;39.73;;;;;;;;;;5072474;28;20454;-68
2022/10/14 04:46:43;;;;;;;80.77;38.53;;;;;;;;;;5072966;28;20446;-67
2022/10/14 04:49:11;;;;;;;66.80;38.40;;;;;;;;;;5072534;28;20996;-68
2022/10/14 04:51:38;;;;;;;82.87;39.67;;;;;;;;;;5073033;28;20450;-68
2022/10/14 04:54:06;;;;;;;67.30;36.07;;;;;;;;;;5072816;28;20470;-69
2022/10/14 04:56:34;;;;;;;73.73;41.87;;;;;;;;;;5071377;28;20445;-69
2022/10/14 04:59:01;;;;;;;86.30;41.60;;;;;;;;;;5071926;28;20441;-68
2022/10/14 05:01:29;;;;;;;79.93;37.13;;;;;;;;;;5072712;28;20489;-68
2022/10/14 05:03:56;;;;;;;75.57;41.07;;;;;;;;;;5072698;28;20444;-69
2022/10/14 05:06:23;;;;;;;81.47;40.53;;;;;;;;;;5072862;28;20450;-69
2022/10/14 05:08:50;;;;;;;84.90;39.07;;;;;;;;;;5072858;28;20492;-68
2022/10/14 05:11:17;;;;;;;88.80;42.60;;;;;;;;;;5072541;28;20461;-69
2022/10/14 05:13:46;;;;;;;78.93;38.50;;;;;;;;;;5072538;28;20448;-69
2022/10/14 05:16:13;;;;;;;75.43;39.33;;;;;;;;;;5073109;28;20442;-68
2022/10/14 05:18:40;;;;;;;81.67;41.20;;;;;;;;;;5076400;28;20448;-69
2022/10/14 05:21:07;;;;;;;76.67;39.73;;;;;;;;;;5076422;28;20460;-68
2022/10/14 05:23:35;;;;;;;78.00;41.70;;;;;;;;;;5076617;28;20444;-68
2022/10/14 05:26:02;;;;;;;81.03;40.77;;;;;;;;;;5076909;28;20435;-69
2022/10/14 05:28:29;;;;;;;95.03;41.83;;;;;;;;;;5075864;28;21000;-68
2022/10/14 05:30:58;;;;;;;91.57;42.90;;;;;;;;;;5076302;28;20452;-69
2022/10/14 05:33:25;;;;;;;91.23;41.77;;;;;;;;;;5075743;28;20962;-68
2022/10/14 05:35:52;;;;;;;112.33;51.57;;;;;;;;;;5076136;28;20444;-69
2022/10/14 05:38:20;;;;;;;95.37;45.53;;;;;;;;;;5076384;28;20442;-68
2022/10/14 05:40:52;;;;;;;78.57;39.60;;;;;;;;;;5075886;28;20441;-69
2022/10/14 05:43:19;;;;;;;94.20;41.70;;;;;;;;;;5076490;28;20434;-68
2022/10/14 05:45:46;;;;;;;98.73;41.67;;;;;;;;;;5075914;28;20445;-69
2022/10/14 05:48:17;;;;;;;82.30;40.23;;;;;;;;;;5075559;28;20472;-70
2022/10/14 05:50:44;;;;;;;85.93;39.60;;;;;;;;;;5075945;28;20788;-69
2022/10/14 05:53:12;;;;;;;77.80;40.13;;;;;;;;;;5075820;28;20443;-69
2022/10/14 05:55:40;;;;;;;83.53;40.30;;;;;;;;;;5075661;28;20444;-68
2022/10/14 05:58:07;;;;;;;87.23;40.37;;;;;;;;;;5075632;28;20461;-68
2022/10/14 06:00:34;;;;;;;80.90;38.70;;;;;;;;;;5075491;28;20855;-68
2022/10/14 06:03:02;;;;;;;79.67;38.10;;;;;;;;;;5075714;28;20446;-68
2022/10/14 06:05:30;;;;;;;83.80;38.87;;;;;;;;;;5075330;28;20447;-69
2022/10/14 06:07:57;;;;;;;85.83;39.23;;;;;;;;;;5075733;28;20484;-68
2022/10/14 06:10:26;;;;;;;100.23;40.70;;;;;;;;;;5075671;28;20445;-69
2022/10/14 06:12:53;;;;;;;79.30;39.07;;;;;;;;;;5075142;28;21004;-68
2022/10/14 06:15:20;;;;;;;90.40;39.80;;;;;;;;;;5075139;28;20445;-69
2022/10/14 06:17:47;;;;;;;93.80;38.60;;;;;;;;;;5075356;28;20887;-68
2022/10/14 06:20:14;;;;;;;114.93;42.73;;;;;;;;;;5075220;28;20498;-69
2022/10/14 06:22:44;;;;;;;93.37;41.80;;;;;;;;;;5075329;28;20442;-68
2022/10/14 06:25:11;;;;;;;103.07;42.70;;;;;;;;;;5074872;28;21063;-68
2022/10/14 06:27:38;;;;;;;98.13;42.03;;;;;;;;;;5073936;28;20476;-68
2022/10/14 06:30:06;;;;;;;113.27;42.70;;;;;;;;;;5074404;28;20482;-68
2022/10/14 06:32:33;;;;;;;110.17;42.97;;;;;;;;;;5075478;28;20452;-68
2022/10/14 06:35:00;;;;;;;104.53;44.40;;;;;;;;;;5075018;28;20445;-68
2022/10/14 06:37:28;;;;;;;112.23;42.77;;;;;;;;;;5074940;28;20461;-68
2022/10/14 06:39:56;;;;;;;101.47;40.13;;;;;;;;;;5074919;28;20451;-68
2022/10/14 06:42:23;;;;;;;97.37;42.43;;;;;;;;;;5074649;28;20980;-68
2022/10/14 06:44:50;;;;;;;94.40;39.40;;;;;;;;;;5074537;28;20448;-68
2022/10/14 06:47:18;;;;;;;102.43;40.23;;;;;;;;;;5075169;28;20449;-68
2022/10/14 06:49:45;;;;;;;94.00;38.23;;;;;;;;;;5074918;28;20478;-68
2022/10/14 06:52:12;;;;;;;83.23;37.03;;;;;;;;;;5074737;28;20452;-68
2022/10/14 06:54:39;;;;;;;74.53;36.60;;;;;;;;;;5074595;28;20444;-68
2022/10/14 06:57:08;;;;;;;74.30;35.60;;;;;;;;;;5074301;28;20444;-68
2022/10/14 06:59:37;;;;;;;77.30;35.67;;;;;;;;;;5074277;28;20453;-68
2022/10/14 07:02:05;;;;;;;76.77;36.23;;;;;;;;;;5074198;28;20962;-68
2022/10/14 07:04:32;;;;;;;68.07;33.40;;;;;;;;;;5074377;28;20441;-69
2022/10/14 07:06:59;;;;;;;80.10;35.47;;;;;;;;;;5074824;28;20451;-68
2022/10/14 07:09:32;;;;;;;71.10;36.73;;;;;;;;;;5074524;28;20481;-68
2022/10/14 07:12:00;;;;;;;56.80;32.60;;;;;;;;;;5074219;28;20506;-68
2022/10/14 07:14:28;;;;;;;60.77;31.43;;;;;;;;;;5073937;28;20501;-68
2022/10/14 07:16:56;;;;;;;63.60;32.80;;;;;;;;;;5074118;28;20831;-68
2022/10/14 07:19:23;;;;;;;60.97;30.73;;;;;;;;;;5074135;28;20531;-68
2022/10/14 07:21:50;;;;;;;47.40;28.10;;;;;;;;;;5074091;28;20808;-69
2022/10/14 07:24:17;;;;;;;51.13;29.00;;;;;;;;;;5073991;28;20472;-68
2022/10/14 07:26:44;;;;;;;56.70;29.30;;;;;;;;;;5074075;28;20449;-68
2022/10/14 07:29:12;;;;;;;48.80;27.43;;;;;;;;;;5073856;28;20478;-68
2022/10/14 07:31:40;;;;;;;63.57;29.30;;;;;;;;;;5073853;28;20449;-68
2022/10/14 07:34:08;;;;;;;40.43;25.77;;;;;;;;;;5074594;28;20474;-68
2022/10/14 07:36:35;;;;;;;40.13;26.23;;;;;;;;;;5073762;28;20452;-68
2022/10/14 07:39:03;;;;;;;43.17;26.40;;;;;;;;;;5073143;28;20454;-68
2022/10/14 07:41:30;;;;;;;46.00;26.80;;;;;;;;;;5073691;28;20565;-68
2022/10/14 07:44:00;;;;;;;37.80;25.50;;;;;;;;;;5073929;28;20795;-68
2022/10/14 07:46:31;;;;;;;36.10;25.07;;;;;;;;;;5074103;28;20430;-68
2022/10/14 07:49:01;;;;;;;35.47;23.77;;;;;;;;;;5073329;28;20556;-69
2022/10/14 07:51:28;;;;;;;42.37;25.37;;;;;;;;;;5073493;28;21001;-69
2022/10/14 07:53:57;;;;;;;33.47;22.90;;;;;;;;;;5072876;28;20438;-68
2022/10/14 07:56:25;;;;;;;37.47;22.27;;;;;;;;;;5073421;28;20449;-68
2022/10/14 07:58:52;;;;;;;54.77;24.67;;;;;;;;;;5073407;28;20446;-68
2022/10/14 08:01:19;;;;;;;30.00;20.83;;;;;;;;;;5073448;28;20874;-69
2022/10/14 08:03:47;;;;;;;30.73;21.03;;;;;;;;;;5073701;28;20520;-68
2022/10/14 08:06:16;;;;;;;22.27;18.90;;;;;;;;;;5073115;28;20882;-69
2022/10/14 08:08:43;;;;;;;24.90;18.47;;;;;;;;;;5073097;28;20475;-69
2022/10/14 08:11:12;;;;;;;22.90;19.43;;;;;;;;;;5073348;28;20798;-68
2022/10/14 08:13:39;;;;;;;24.40;16.80;;;;;;;;;;5073616;28;20433;-68
2022/10/14 08:16:13;;;;;;;19.13;15.60;;;;;;;;;;5073050;28;20538;-68
2022/10/14 08:18:41;;;;;;;17.67;15.77;;;;;;;;;;5073163;28;20462;-68
2022/10/14 08:21:08;;;;;;;17.97;14.73;;;;;;;;;;5072905;28;20533;-68
2022/10/14 08:23:36;;;;;;;16.93;15.13;;;;;;;;;;5072770;28;20446;-68
2022/10/14 08:26:03;;;;;;;17.40;13.50;;;;;;;;;;5073488;28;20431;-68
2022/10/14 08:28:31;;;;;;;16.47;12.07;;;;;;;;;;5073044;28;20573;-68
2022/10/14 08:30:58;;;;;;;14.77;11.90;;;;;;;;;;5073199;28;20925;-68
2022/10/14 08:33:25;;;;;;;12.73;11.43;;;;;;;;;;5073307;28;20447;-68
2022/10/14 08:35:52;;;;;;;17.03;13.60;;;;;;;;;;5073068;28;20923;-69
2022/10/14 08:38:23;;;;;;;13.43;10.47;;;;;;;;;;5073422;28;20916;-68
2022/10/14 08:41:00;;;;;;;11.73;10.53;;;;;;;;;;5073250;28;20433;-68
2022/10/14 08:43:31;;;;;;;15.23;11.70;;;;;;;;;;5073227;28;20643;-68
2022/10/14 08:46:04;;;;;;;11.70;10.27;;;;;;;;;;5073249;28;20433;-68
2022/10/14 08:48:32;;;;;;;12.13;10.60;;;;;;;;;;5073119;28;21061;-68
2022/10/14 08:51:03;;;;;;;11.93;9.67;;;;;;;;;;5073049;28;20446;-69
2022/10/14 08:53:33;;;;;;;10.47;9.47;;;;;;;;;;5077318;28;20439;-68
2022/10/14 08:56:03;;;;;;;9.67;8.67;;;;;;;;;;5076682;28;20430;-68
2022/10/14 08:58:32;;;;;;;9.30;8.33;;;;;;;;;;5076874;28;20528;-68
2022/10/14 09:01:02;;;;;;;10.60;9.20;;;;;;;;;;5076734;28;20534;-69
2022/10/14 09:03:32;;;;;;;9.63;8.57;;;;;;;;;;5076389;28;20443;-68
2022/10/14 09:06:01;;;;;;;17.83;9.83;;;;;;;;;;5076999;28;20449;-68
2022/10/14 09:08:30;;;;;;;10.00;7.53;;;;;;;;;;5076532;28;20485;-69
2022/10/14 09:10:58;;;;;;;9.73;7.57;;;;;;;;;;5076682;28;20461;-68
2022/10/14 09:13:29;;;;;;;10.77;8.03;;;;;;;;;;5076246;28;20430;-68
2022/10/14 09:15:58;;;;;;;16.03;7.93;;;;;;;;;;5076372;28;20524;-69
2022/10/14 09:18:28;;;;;;;10.73;7.70;;;;;;;;;;5076371;28;20448;-68
2022/10/14 09:20:57;;;;;;;9.63;8.47;;;;;;;;;;5076165;28;20494;-68
2022/10/14 09:23:25;;;;;;;14.47;8.33;;;;;;;;;;5076419;28;20993;-69
2022/10/14 09:25:57;;;;;;;7.80;7.20;;;;;;;;;;5037017;28;20453;-68
2022/10/14 09:28:29;;;;;;;8.63;7.30;;;;;;;;;;5036196;28;20983;-68
2022/10/14 09:30:56;;;;;;;8.27;7.53;;;;;;;;;;5036533;28;20530;-68
2022/10/14 09:33:24;;;;;;;8.67;6.67;;;;;;;;;;5035962;28;20456;-68
2022/10/14 09:35:51;;;;;;;8.70;7.07;;;;;;;;;;5036429;28;20546;-68
2022/10/14 09:38:19;;;;;;;7.63;5.87;;;;;;;;;;5035805;28;20454;-68
2022/10/14 09:40:47;;;;;;;10.03;6.50;;;;;;;;;;5036289;28;20451;-68
2022/10/14 09:43:16;;;;;;;19.40;5.80;;;;;;;;;;5036111;28;20536;-68
2022/10/14 09:45:49;;;;;;;8.17;5.93;;;;;;;;;;5035812;28;21006;-68
2022/10/14 09:48:17;;;;;;;8.63;6.57;;;;;;;;;;5036122;28;20859;-68
2022/10/14 09:50:50;;;;;;;7.37;6.67;;;;;;;;;;5035683;28;20463;-68
2022/10/14 09:53:19;;;;;;;6.90;6.20;;;;;;;;;;5034899;28;20423;-68
2022/10/14 09:55:48;;;;;;;6.00;5.30;;;;;;;;;;5035572;28;20501;-69
2022/10/14 09:58:18;;;;;;;6.90;4.63;;;;;;;;;;5035715;28;20456;-69
2022/10/14 10:00:46;;;;;;;9.33;6.53;;;;;;;;;;5035802;28;20449;-69
2022/10/14 10:03:26;;;;;;;10.07;6.60;;;;;;;;;;5035426;28;20441;-69
2022/10/14 10:05:59;;;;;;;6.23;5.63;;;;;;;;;;5036073;28;20447;-69
2022/10/14 10:08:27;;;;;;;9.33;6.13;;;;;;;;;;5035365;28;20436;-69
2022/10/14 10:10:59;;;;;;;18.30;6.80;;;;;;;;;;5035359;28;20942;-69
2022/10/14 10:13:32;;;;;;;42.27;7.90;;;;;;;;;;5035412;28;20440;-68
2022/10/14 10:16:00;;;;;;;14.23;6.77;;;;;;;;;;5035623;28;20779;-69
2022/10/14 10:18:28;;;;;;;10.67;6.90;;;;;;;;;;5035251;28;20790;-68
2022/10/14 10:21:05;;;;;;;6.40;5.60;;;;;;;;;;5035101;28;20447;-68
2022/10/14 10:23:33;;;;;;;7.97;6.40;;;;;;;;;;5036557;28;20439;-68
2022/10/14 10:26:14;;;;;;;25.10;7.63;;;;;;;;;;5074996;28;20521;-68
2022/10/14 10:28:45;;;;;;;21.73;6.80;;;;;;;;;;5075322;28;20489;-68
2022/10/14 10:31:20;;;;;;;18.13;6.07;;;;;;;;;;5074799;28;20449;-68
2022/10/14 10:33:53;;;;;;;11.53;9.00;;;;;;;;;;5075325;28;20430;-68
2022/10/14 10:36:25;;;;;;;12.53;6.67;;;;;;;;;;5075400;28;20469;-68
2022/10/14 10:38:59;;;;;;;7.63;5.73;;;;;;;;;;5074899;28;20919;-68
2022/10/14 10:41:41;;;;;;;32.03;7.50;;;;;;;;;;5074967;28;20766;-68
2022/10/14 10:44:16;;;;;;;14.13;5.50;;;;;;;;;;5074494;28;20480;-69
2022/10/14 10:46:52;;;;;;;9.40;5.67;;;;;;;;;;5074918;28;20430;-68
2022/10/14 10:49:24;;;;;;;5.90;5.30;;;;;;;;;;5074298;28;20470;-68
2022/10/14 10:51:55;;;;;;;6.80;6.20;;;;;;;;;;5074810;28;20441;-68
2022/10/14 10:54:26;;;;;;;5.63;5.00;;;;;;;;;;5074801;28;20515;-68
2022/10/14 10:56:56;;;;;;;5.57;5.13;;;;;;;;;;5074750;28;20916;-67
2022/10/14 10:59:32;;;;;;;5.43;4.90;;;;;;;;;;5074734;28;20789;-68
2022/10/14 11:02:17;;;;;;;5.80;5.30;;;;;;;;;;5074822;28;20929;-68
2022/10/14 11:04:48;;;;;;;7.73;4.83;;;;;;;;;;5074568;28;20443;-68
2022/10/14 11:12:56;;;;;;;4.97;4.47;;;;;;;;;;5074221;28;20443;-68
2022/10/14 11:15:30;;;;;;;5.37;4.50;;;;;;;;;;5073749;28;20436;-68
2022/10/14 11:18:01;;;;;;;4.53;4.10;;;;;;;;;;5073862;28;20480;-68
2022/10/14 11:20:35;;;;;;;6.30;4.40;;;;;;;;;;5074562;28;20435;-68
2022/10/14 11:23:17;;;;;;;4.80;4.10;;;;;;;;;;5074442;28;20446;-68
2022/10/14 11:25:48;;;;;;;5.50;3.80;;;;;;;;;;5061635;28;20476;-68
2022/10/14 11:28:19;;;;;;;5.13;3.80;;;;;;;;;;5074445;28;20497;-68
2022/10/14 11:30:48;;;;;;;4.63;4.13;;;;;;;;;;5073715;28;20473;-68
2022/10/14 11:33:38;;;;;;;4.93;4.00;;;;;;;;;;5073884;28;20443;-68
2022/10/14 11:36:12;;;;;;;3.40;3.10;;;;;;;;;;5074010;28;20446;-68
2022/10/14 11:38:50;;;;;;;3.50;3.20;;;;;;;;;;5073832;28;20443;-68
2022/10/14 11:41:24;;;;;;;3.70;3.40;;;;;;;;;;5074178;28;20597;-68
2022/10/14 11:43:55;;;;;;;7.23;2.90;;;;;;;;;;5073736;28;20427;-68
2022/10/14 11:46:23;;;;;;;4.73;2.90;;;;;;;;;;5073814;28;20439;-68
2022/10/14 11:48:52;;;;;;;5.63;3.13;;;;;;;;;;5073223;28;20446;-69
2022/10/14 11:51:23;;;;;;;3.97;3.33;;;;;;;;;;5073857;28;20451;-68
2022/10/14 11:53:57;;;;;;;4.33;3.10;;;;;;;;;;5074157;28;20435;-68
2022/10/14 11:56:29;;;;;;;2.87;2.57;;;;;;;;;;5074019;28;20932;-68
2022/10/14 11:59:19;;;;;;;4.43;2.90;;;;;;;;;;5073575;28;20441;-68
2022/10/14 12:01:48;;;;;;;4.00;2.70;;;;;;;;;;5073312;28;20910;-68
2022/10/14 12:04:20;;;;;;;5.33;2.60;;;;;;;;;;5072994;28;20948;-69
2022/10/14 12:06:50;;;;;;;5.60;5.00;;;;;;;;;;5073182;28;20941;-68
2022/10/14 12:09:22;;;;;;;3.17;2.87;;;;;;;;;;5073066;28;21076;-68
2022/10/14 12:11:51;;;;;;;3.40;2.87;;;;;;;;;;5073498;28;20434;-68
2022/10/14 12:14:21;;;;;;;4.43;3.13;;;;;;;;;;5073603;28;20438;-68
2022/10/14 12:16:49;;;;;;;2.93;2.70;;;;;;;;;;5073613;28;20433;-68
2022/10/14 12:19:20;;;;;;;2.30;2.20;;;;;;;;;;5073245;28;20456;-68
2022/10/14 12:21:52;;;;;;;2.40;2.20;;;;;;;;;;5073341;28;20937;-68
2022/10/14 12:24:20;;;;;;;2.77;2.53;;;;;;;;;;5073591;28;20487;-68
2022/10/14 12:26:49;;;;;;;2.43;2.17;;;;;;;;;;5076144;28;20445;-68
2022/10/14 12:29:19;;;;;;;3.27;2.97;;;;;;;;;;5077325;28;20798;-68
2022/10/14 12:31:49;;;;;;;2.43;2.23;;;;;;;;;;5077467;28;20538;-68
2022/10/14 12:34:24;;;;;;;2.53;2.40;;;;;;;;;;5077582;28;20446;-68
2022/10/14 12:36:52;;;;;;;2.63;2.43;;;;;;;;;;5077190;28;20473;-68
2022/10/14 12:39:29;;;;;;;3.83;2.27;;;;;;;;;;5076829;28;20438;-69
2022/10/14 12:41:59;;;;;;;2.50;2.30;;;;;;;;;;5077007;28;20436;-68
2022/10/14 12:44:32;;;;;;;2.53;2.23;;;;;;;;;;5076810;28;20992;-68
2022/10/14 12:46:59;;;;;;;3.80;2.93;;;;;;;;;;5077267;28;20533;-68
2022/10/14 12:49:28;;;;;;;2.90;2.47;;;;;;;;;;5076640;28;20498;-68
2022/10/14 12:51:58;;;;;;;3.47;2.80;;;;;;;;;;5077033;28;20438;-68
2022/10/14 12:54:26;;;;;;;5.07;2.30;;;;;;;;;;5076499;28;20524;-68
2022/10/14 12:56:55;;;;;;;2.80;2.17;;;;;;;;;;5077070;28;20448;-69
2022/10/14 12:59:25;;;;;;;2.50;2.30;;;;;;;;;;5076643;28;20536;-69
2022/10/14 13:01:57;;;;;;;2.17;2.07;;;;;;;;;;5076886;28;20447;-68
2022/10/14 13:04:24;;;;;;;2.30;2.00;;;;;;;;;;5076312;28;20968;-68
2022/10/14 13:07:10;;;;;;;3.30;2.10;;;;;;;;;;5076998;28;20802;-68
2022/10/14 13:09:38;;;;;;;2.23;2.03;;;;;;;;;;5076340;28;20478;-68
2022/10/14 13:12:36;;;;;;;11.40;2.17;;;;;;;;;;5076301;28;20446;-68
2022/10/14 13:15:04;;;;;;;3.57;2.00;;;;;;;;;;5076529;28;20427;-68
2022/10/14 13:17:44;;;;;;;2.23;2.03;;;;;;;;;;5076508;28;20441;-67
2022/10/14 13:20:26;;;;;;;3.47;2.00;;;;;;;;;;5076431;28;20439;-67
2022/10/14 13:22:53;;;;;;;2.33;1.90;;;;;;;;;;5076102;28;20436;-67
2022/10/14 13:25:22;;;;;;;6.13;2.63;;;;;;;;;;5076244;28;20475;-67
2022/10/14 13:27:56;;;;;;;3.13;2.93;;;;;;;;;;5076303;28;20480;-66
2022/10/14 13:30:25;;;;;;;3.77;3.17;;;;;;;;;;5076047;28;20484;-67
2022/10/14 13:32:55;;;;;;;3.70;3.20;;;;;;;;;;5074930;28;20519;-68
2022/10/14 13:35:25;;;;;;;3.63;3.33;;;;;;;;;;5075299;28;20538;-68
2022/10/14 13:37:56;;;;;;;4.00;3.70;;;;;;;;;;5074472;28;20439;-67
2022/10/14 13:40:27;;;;;;;3.43;3.23;;;;;;;;;;5075496;28;20434;-67
2022/10/14 13:42:56;;;;;;;4.20;3.80;;;;;;;;;;5076291;28;20837;-67
2022/10/14 13:45:29;;;;;;;3.93;3.50;;;;;;;;;;5075574;28;20442;-67
2022/10/14 13:47:56;;;;;;;3.80;3.40;;;;;;;;;;5075710;28;20440;-67
2022/10/14 13:50:24;;;;;;;4.57;2.93;;;;;;;;;;5075777;28;20841;-67
2022/10/14 13:52:55;;;;;;;3.67;3.37;;;;;;;;;;5075499;28;20449;-66
2022/10/14 13:55:23;;;;;;;4.10;3.70;;;;;;;;;;5075847;28;20446;-67
2022/10/14 13:58:01;;;;;;;2.93;2.73;;;;;;;;;;5075339;28;20434;-67
2022/10/14 14:00:29;;;;;;;6.17;4.37;;;;;;;;;;5076049;28;20464;-67
2022/10/14 14:02:56;;;;;;;6.00;3.97;;;;;;;;;;5075213;28;20448;-68
2022/10/14 14:05:24;;;;;;;4.20;3.90;;;;;;;;;;5074864;28;20459;-67
2022/10/14 14:07:51;;;;;;;6.37;4.70;;;;;;;;;;5075803;28;20771;-67
2022/10/14 14:10:20;;;;;;;5.47;4.70;;;;;;;;;;5075355;28;20488;-67
2022/10/14 14:12:47;;;;;;;8.33;5.47;;;;;;;;;;5075332;28;20442;-67
2022/10/14 14:15:19;;;;;;;7.43;6.17;;;;;;;;;;5074899;28;20460;-66
2022/10/14 14:17:46;;;;;;;10.90;6.70;;;;;;;;;;5074864;28;20433;-67
2022/10/14 14:20:14;;;;;;;8.00;6.50;;;;;;;;;;5074662;28;20452;-68
2022/10/14 14:22:42;;;;;;;8.30;6.60;;;;;;;;;;5074876;28;20956;-67
2022/10/14 14:25:11;;;;;;;6.33;5.73;;;;;;;;;;5074144;28;21047;-67
2022/10/14 14:27:43;;;;;;;7.20;6.30;;;;;;;;;;5074914;28;20444;-68
2022/10/14 14:30:21;;;;;;;6.50;5.90;;;;;;;;;;5075034;28;20474;-67
2022/10/14 14:32:49;;;;;;;14.37;9.10;;;;;;;;;;5074435;28;20844;-68
2022/10/14 14:35:19;;;;;;;9.30;8.23;;;;;;;;;;5074805;28;20534;-68
2022/10/14 14:37:47;;;;;;;8.30;7.50;;;;;;;;;;5074685;28;20420;-68
2022/10/14 14:40:19;;;;;;;10.43;7.70;;;;;;;;;;5074561;28;20480;-67
2022/10/14 14:42:47;;;;;;;8.20;7.40;;;;;;;;;;5074591;28;20910;-68
2022/10/14 14:45:18;;;;;;;9.30;8.00;;;;;;;;;;5074068;28;20449;-67